Time;durP1;ratioP1;P1;durP2;ratioP2;P2;SDS_P1;SDS_P2;PMS_P1;PMS_P2;Temp;Humidity;BMP_temperature;BMP_pressure;BME280_temperature;BME280_humidity;BME280_pressure;Samples;Min_cycle;Max_cycle;Signal;HPM_P1;HPM_P2
2021/06/06 00:00:34;;;;;;;0.80;0.80;;;;;;;;;;5066393;28;20049;-81
2021/06/06 00:03:02;;;;;;;1.50;0.80;;;;;;;;;;5066757;28;20044;-81
2021/06/06 00:05:49;;;;;;;2.42;1.10;;;;;;;;;;5052718;28;20053;-81
2021/06/06 00:08:17;;;;;;;0.90;0.90;;;;;;;;;;5063005;28;20035;-81
2021/06/06 00:10:46;;;;;;;5.97;1.23;;;;;;;;;;5070168;28;20048;-81
2021/06/06 00:13:16;;;;;;;1.98;1.08;;;;;;;;;;5069569;28;20044;-81
2021/06/06 00:15:44;;;;;;;4.57;0.90;;;;;;;;;;5068380;28;20051;-81
2021/06/06 00:18:12;;;;;;;1.65;1.02;;;;;;;;;;5058845;28;20045;-81
2021/06/06 00:20:39;;;;;;;2.58;0.90;;;;;;;;;;5069002;28;20154;-81
2021/06/06 00:23:10;;;;;;;3.10;1.10;;;;;;;;;;5069893;28;20043;-81
2021/06/06 00:25:38;;;;;;;5.32;1.52;;;;;;;;;;5070543;28;20049;-81
2021/06/06 00:28:06;;;;;;;4.03;0.82;;;;;;;;;;5069406;28;20564;-81
2021/06/06 00:30:34;;;;;;;1.98;0.80;;;;;;;;;;5070222;28;20071;-81
2021/06/06 00:33:01;;;;;;;2.03;1.05;;;;;;;;;;5067940;28;20078;-81
2021/06/06 00:35:29;;;;;;;5.45;1.25;;;;;;;;;;5061150;28;20047;-81
2021/06/06 00:37:56;;;;;;;4.07;0.90;;;;;;;;;;5068218;28;20045;-81
2021/06/06 00:40:25;;;;;;;3.80;1.23;;;;;;;;;;5067756;28;20036;-81
2021/06/06 00:42:53;;;;;;;1.10;1.00;;;;;;;;;;5067500;28;20115;-81
2021/06/06 00:45:22;;;;;;;2.42;1.05;;;;;;;;;;5065871;28;20052;-81
2021/06/06 00:47:49;;;;;;;2.50;0.90;;;;;;;;;;5067451;28;20036;-81
2021/06/06 00:50:21;;;;;;;4.97;1.08;;;;;;;;;;5069841;28;20493;-81
2021/06/06 00:52:49;;;;;;;2.83;0.90;;;;;;;;;;5067430;28;20039;-81
2021/06/06 00:55:17;;;;;;;2.22;0.90;;;;;;;;;;5061709;28;20083;-81
2021/06/06 00:57:45;;;;;;;2.35;1.10;;;;;;;;;;5070323;28;20474;-81
2021/06/06 01:00:16;;;;;;;1.67;1.00;;;;;;;;;;5068099;28;20036;-81
2021/06/06 01:02:45;;;;;;;2.63;1.73;;;;;;;;;;5070229;28;20044;-81
2021/06/06 01:05:14;;;;;;;1.20;1.10;;;;;;;;;;5099265;28;20279;-81
2021/06/06 01:07:42;;;;;;;4.25;0.90;;;;;;;;;;5065740;28;20090;-81
2021/06/06 01:10:09;;;;;;;1.27;1.00;;;;;;;;;;5068561;28;20578;-81
2021/06/06 01:12:43;;;;;;;0.90;0.90;;;;;;;;;;5099048;28;20371;-81
2021/06/06 01:15:19;;;;;;;15.60;1.50;;;;;;;;;;5067995;28;20048;-81
2021/06/06 01:17:54;;;;;;;2.65;1.58;;;;;;;;;;5066506;28;20370;-81
2021/06/06 01:20:48;;;;;;;2.10;1.00;;;;;;;;;;5066038;28;20362;-81
2021/06/06 01:23:41;;;;;;;4.95;1.08;;;;;;;;;;5023138;28;20046;-81
2021/06/06 01:26:12;;;;;;;3.63;1.00;;;;;;;;;;5013229;28;20123;-81
2021/06/06 01:28:55;;;;;;;2.60;1.10;;;;;;;;;;5028057;28;20063;-81
2021/06/06 01:31:23;;;;;;;4.70;1.20;;;;;;;;;;5044629;28;20465;-81
2021/06/06 01:33:55;;;;;;;1.20;1.10;;;;;;;;;;5030906;28;20180;-81
2021/06/06 01:36:36;;;;;;;3.87;1.30;;;;;;;;;;5029735;28;20060;-81
2021/06/06 01:39:05;;;;;;;2.97;1.00;;;;;;;;;;5041149;28;20052;-81
2021/06/06 01:41:45;;;;;;;3.38;1.10;;;;;;;;;;5033413;28;20061;-81
2021/06/06 01:44:13;;;;;;;1.63;1.10;;;;;;;;;;5014173;28;20036;-81
2021/06/06 01:46:42;;;;;;;5.72;2.03;;;;;;;;;;5015839;28;20084;-81
2021/06/06 01:49:10;;;;;;;1.10;1.00;;;;;;;;;;5031281;28;20571;-81
2021/06/06 01:51:39;;;;;;;1.30;1.30;;;;;;;;;;5004866;28;20049;-81
2021/06/06 01:54:08;;;;;;;7.35;1.35;;;;;;;;;;5031085;28;20491;-81
2021/06/06 01:56:36;;;;;;;1.88;1.40;;;;;;;;;;5028164;28;20041;-81
2021/06/06 01:59:08;;;;;;;1.13;1.02;;;;;;;;;;5035170;28;20046;-81
2021/06/06 02:01:36;;;;;;;1.05;0.93;;;;;;;;;;5071117;28;20683;-81
2021/06/06 02:04:04;;;;;;;4.55;1.05;;;;;;;;;;5072723;28;20049;-81
2021/06/06 02:06:36;;;;;;;3.17;1.58;;;;;;;;;;5101248;28;20033;-81
2021/06/06 02:09:07;;;;;;;4.03;2.08;;;;;;;;;;5071046;28;20040;-81
2021/06/06 02:11:54;;;;;;;6.78;1.08;;;;;;;;;;5071164;28;20090;-81
2021/06/06 02:14:24;;;;;;;0.98;0.98;;;;;;;;;;5073088;28;20045;-81
2021/06/06 02:16:54;;;;;;;1.20;1.00;;;;;;;;;;5072414;28;20488;-81
2021/06/06 02:19:25;;;;;;;2.90;1.00;;;;;;;;;;5087666;28;20135;-81
2021/06/06 02:21:54;;;;;;;2.45;1.00;;;;;;;;;;5069598;28;20048;-81
2021/06/06 02:24:21;;;;;;;1.83;1.00;;;;;;;;;;5071768;28;20044;-81
2021/06/06 02:26:51;;;;;;;2.65;1.00;;;;;;;;;;5062051;28;20083;-81
2021/06/06 02:29:37;;;;;;;1.88;0.90;;;;;;;;;;5065249;28;20543;-81
2021/06/06 02:32:07;;;;;;;2.00;1.05;;;;;;;;;;5053352;28;20053;-81
2021/06/06 02:34:47;;;;;;;3.13;1.02;;;;;;;;;;5072508;28;20516;-81
2021/06/06 02:37:16;;;;;;;1.35;1.20;;;;;;;;;;5069439;28;20786;-81
2021/06/06 02:39:45;;;;;;;3.05;0.98;;;;;;;;;;5070935;28;20041;-80
2021/06/06 02:42:14;;;;;;;1.83;1.00;;;;;;;;;;5068855;28;20044;-81
2021/06/06 02:45:02;;;;;;;2.05;1.10;;;;;;;;;;5070993;28;20033;-81
2021/06/06 02:47:31;;;;;;;1.70;1.10;;;;;;;;;;5057920;28;20482;-81
2021/06/06 02:50:00;;;;;;;4.07;1.25;;;;;;;;;;5068102;28;20090;-81
2021/06/06 02:52:41;;;;;;;2.25;1.05;;;;;;;;;;5072205;28;20048;-81
2021/06/06 02:55:19;;;;;;;1.23;1.08;;;;;;;;;;5070448;28;20521;-81
2021/06/06 02:57:52;;;;;;;1.38;0.90;;;;;;;;;;5083020;28;20424;-81
2021/06/06 03:00:22;;;;;;;4.47;1.30;;;;;;;;;;5064672;28;20037;-81
2021/06/06 03:02:52;;;;;;;1.10;1.00;;;;;;;;;;5060405;28;20037;-81
2021/06/06 03:05:21;;;;;;;1.02;0.95;;;;;;;;;;5061043;28;20062;-81
2021/06/06 03:07:49;;;;;;;1.17;1.10;;;;;;;;;;5070020;28;20033;-81
2021/06/06 03:10:17;;;;;;;4.32;1.20;;;;;;;;;;5068340;28;20391;-81
2021/06/06 03:12:47;;;;;;;2.00;1.00;;;;;;;;;;5071685;28;20489;-81
2021/06/06 03:15:14;;;;;;;4.50;1.40;;;;;;;;;;5070493;28;20044;-81
2021/06/06 03:17:43;;;;;;;1.00;1.00;;;;;;;;;;5069195;28;20056;-81
2021/06/06 03:20:14;;;;;;;5.18;1.20;;;;;;;;;;5069696;28;20094;-81
2021/06/06 03:22:41;;;;;;;3.88;1.15;;;;;;;;;;5068666;28;20055;-81
2021/06/06 03:25:14;;;;;;;1.58;1.48;;;;;;;;;;5068713;28;20039;-81
2021/06/06 03:27:42;;;;;;;4.88;1.20;;;;;;;;;;5058407;28;20041;-81
2021/06/06 03:30:28;;;;;;;1.75;1.63;;;;;;;;;;5064308;28;20043;-81
2021/06/06 03:32:56;;;;;;;2.97;1.15;;;;;;;;;;5068984;28;20044;-81
2021/06/06 03:35:23;;;;;;;2.92;1.13;;;;;;;;;;5070480;28;20040;-81
2021/06/06 03:37:50;;;;;;;6.53;1.23;;;;;;;;;;5068542;28;20052;-81
2021/06/06 03:40:19;;;;;;;1.85;1.10;;;;;;;;;;5070298;28;20041;-81
2021/06/06 03:42:46;;;;;;;1.60;1.10;;;;;;;;;;5069541;28;20028;-81
2021/06/06 03:45:13;;;;;;;2.85;1.83;;;;;;;;;;5070425;28;20543;-81
2021/06/06 03:47:40;;;;;;;1.38;1.20;;;;;;;;;;5070029;28;20032;-81
2021/06/06 03:50:08;;;;;;;1.25;1.20;;;;;;;;;;5069404;28;20086;-81
2021/06/06 03:52:35;;;;;;;2.90;1.02;;;;;;;;;;5069511;28;20047;-81
2021/06/06 03:55:03;;;;;;;2.05;1.10;;;;;;;;;;5082531;28;20056;-81
2021/06/06 03:57:32;;;;;;;1.77;1.52;;;;;;;;;;5069873;28;20598;-81
2021/06/06 03:59:59;;;;;;;1.33;1.10;;;;;;;;;;5086479;28;20048;-81
2021/06/06 04:02:26;;;;;;;1.77;1.25;;;;;;;;;;5067960;28;20056;-81
2021/06/06 04:04:53;;;;;;;1.80;1.10;;;;;;;;;;5070845;28;20050;-81
2021/06/06 04:07:20;;;;;;;2.33;1.30;;;;;;;;;;5071213;28;20082;-81
2021/06/06 04:09:47;;;;;;;5.35;1.00;;;;;;;;;;5068834;28;20028;-81
2021/06/06 04:12:14;;;;;;;2.83;1.55;;;;;;;;;;5104391;28;20119;-81
2021/06/06 04:14:41;;;;;;;1.38;1.27;;;;;;;;;;5068524;28;20115;-81
2021/06/06 04:17:08;;;;;;;2.10;1.20;;;;;;;;;;5068507;28;20083;-81
2021/06/06 04:19:35;;;;;;;1.45;1.40;;;;;;;;;;5069037;28;20098;-81
2021/06/06 04:22:01;;;;;;;4.00;2.83;;;;;;;;;;5068130;28;20044;-81
2021/06/06 04:24:31;;;;;;;3.60;3.20;;;;;;;;;;5071435;28;20568;-81
2021/06/06 04:26:58;;;;;;;2.67;2.55;;;;;;;;;;5066675;28;20033;-81
2021/06/06 04:29:25;;;;;;;3.78;2.28;;;;;;;;;;5056440;28;20047;-81
2021/06/06 04:31:51;;;;;;;5.32;2.85;;;;;;;;;;5059657;28;20091;-81
2021/06/06 04:34:18;;;;;;;2.45;2.30;;;;;;;;;;5062608;28;20444;-81
2021/06/06 04:36:49;;;;;;;3.47;1.83;;;;;;;;;;5070528;28;20059;-81
2021/06/06 04:39:16;;;;;;;2.83;1.58;;;;;;;;;;5068378;28;20053;-81
2021/06/06 04:41:43;;;;;;;2.92;1.55;;;;;;;;;;5068393;28;20090;-81
2021/06/06 04:44:10;;;;;;;3.35;1.55;;;;;;;;;;5070710;28;20390;-81
2021/06/06 04:46:37;;;;;;;2.90;1.48;;;;;;;;;;5067989;28;20036;-81
2021/06/06 04:49:04;;;;;;;2.95;1.40;;;;;;;;;;5069457;28;20041;-81
2021/06/06 04:51:31;;;;;;;1.67;1.58;;;;;;;;;;5071102;28;20039;-81
2021/06/06 04:53:57;;;;;;;2.03;1.90;;;;;;;;;;5069246;28;20102;-81
2021/06/06 04:56:25;;;;;;;3.55;2.05;;;;;;;;;;5070804;28;20048;-81
2021/06/06 04:58:53;;;;;;;2.35;2.17;;;;;;;;;;5067525;28;20666;-81
2021/06/06 05:01:20;;;;;;;1.73;1.63;;;;;;;;;;5059046;28;20090;-81
2021/06/06 05:03:47;;;;;;;2.35;2.15;;;;;;;;;;5070249;28;20037;-81
2021/06/06 05:06:14;;;;;;;3.70;1.90;;;;;;;;;;5070255;28;20041;-81
2021/06/06 05:08:41;;;;;;;1.60;1.33;;;;;;;;;;5069121;28;20044;-81
2021/06/06 05:11:08;;;;;;;3.47;1.90;;;;;;;;;;5067487;28;20059;-81
2021/06/06 05:13:35;;;;;;;1.80;1.30;;;;;;;;;;5068942;28;20043;-81
2021/06/06 05:16:02;;;;;;;1.83;1.50;;;;;;;;;;5070209;28;20048;-81
2021/06/06 05:18:29;;;;;;;1.40;1.30;;;;;;;;;;5066943;28;20040;-81
2021/06/06 05:20:56;;;;;;;1.20;1.10;;;;;;;;;;5069529;28;20041;-81
2021/06/06 05:23:24;;;;;;;1.85;1.75;;;;;;;;;;5069500;28;20036;-81
2021/06/06 05:25:51;;;;;;;3.55;1.58;;;;;;;;;;5069213;28;20044;-81
2021/06/06 05:28:20;;;;;;;2.30;1.77;;;;;;;;;;5066426;28;20090;-81
2021/06/06 05:30:47;;;;;;;1.88;1.50;;;;;;;;;;5070573;28;20494;-81
2021/06/06 05:33:15;;;;;;;1.67;1.55;;;;;;;;;;5086777;28;20044;-80
2021/06/06 05:35:42;;;;;;;2.80;2.35;;;;;;;;;;5069784;28;20098;-81
2021/06/06 05:38:10;;;;;;;2.03;1.90;;;;;;;;;;5068247;28;20045;-81
2021/06/06 05:40:38;;;;;;;2.78;2.65;;;;;;;;;;5067525;28;20041;-81
2021/06/06 05:43:05;;;;;;;2.80;2.00;;;;;;;;;;5065242;28;20033;-81
2021/06/06 05:45:33;;;;;;;1.75;1.65;;;;;;;;;;5055207;28;20033;-81
2021/06/06 05:48:00;;;;;;;2.38;1.55;;;;;;;;;;5070650;28;20041;-81
2021/06/06 05:50:30;;;;;;;1.52;1.42;;;;;;;;;;5068914;28;20525;-81
2021/06/06 05:52:58;;;;;;;4.72;2.05;;;;;;;;;;5101981;28;20033;-81
2021/06/06 05:55:24;;;;;;;3.08;1.70;;;;;;;;;;5064266;28;20048;-81
2021/06/06 05:57:55;;;;;;;2.15;1.80;;;;;;;;;;5052256;28;20060;-81
2021/06/06 06:00:25;;;;;;;3.33;1.85;;;;;;;;;;5062162;28;20662;-81
2021/06/06 06:02:52;;;;;;;2.72;2.03;;;;;;;;;;5060408;28;20078;-81
2021/06/06 06:05:19;;;;;;;3.20;1.35;;;;;;;;;;5069421;28;20098;-81
2021/06/06 06:07:46;;;;;;;1.63;1.40;;;;;;;;;;5067302;28;20028;-81
2021/06/06 06:10:15;;;;;;;1.75;1.65;;;;;;;;;;5065497;28;20036;-81
2021/06/06 06:12:42;;;;;;;1.67;1.20;;;;;;;;;;5067466;28;20051;-81
2021/06/06 06:15:09;;;;;;;2.05;1.50;;;;;;;;;;5066505;28;20044;-81
2021/06/06 06:17:36;;;;;;;2.63;1.40;;;;;;;;;;5073282;28;20052;-81
2021/06/06 06:20:08;;;;;;;2.38;1.30;;;;;;;;;;5081808;28;20060;-81
2021/06/06 06:22:35;;;;;;;1.60;1.50;;;;;;;;;;5061541;28;20036;-81
2021/06/06 06:25:02;;;;;;;4.00;1.70;;;;;;;;;;5072454;28;20041;-81
2021/06/06 06:27:29;;;;;;;2.63;2.08;;;;;;;;;;5070328;28;20456;-81
2021/06/06 06:29:56;;;;;;;4.75;3.63;;;;;;;;;;5071364;28;20505;-81
2021/06/06 06:32:23;;;;;;;9.57;7.15;;;;;;;;;;5071499;28;20110;-81
2021/06/06 06:34:51;;;;;;;10.88;7.30;;;;;;;;;;5072942;28;20049;-81
2021/06/06 06:37:18;;;;;;;7.65;5.97;;;;;;;;;;5058258;28;20070;-81
2021/06/06 06:39:46;;;;;;;6.22;5.10;;;;;;;;;;5082603;28;20041;-81
2021/06/06 06:42:13;;;;;;;5.85;4.45;;;;;;;;;;5065817;28;20540;-81
2021/06/06 06:44:40;;;;;;;7.25;4.22;;;;;;;;;;5072810;28;20432;-81
2021/06/06 06:47:07;;;;;;;3.67;3.38;;;;;;;;;;5072238;28;20025;-81
2021/06/06 06:49:34;;;;;;;7.25;3.58;;;;;;;;;;5058257;28;20095;-81
2021/06/06 06:52:02;;;;;;;6.50;3.42;;;;;;;;;;5084025;28;20036;-81
2021/06/06 06:54:29;;;;;;;1.92;1.77;;;;;;;;;;5058848;28;20430;-81
2021/06/06 06:56:56;;;;;;;3.28;2.05;;;;;;;;;;5064095;28;20037;-81
2021/06/06 06:59:27;;;;;;;5.20;2.28;;;;;;;;;;5071038;28;20056;-81
2021/06/06 07:01:58;;;;;;;2.15;1.35;;;;;;;;;;5052108;28;20505;-81
2021/06/06 07:04:26;;;;;;;2.72;1.48;;;;;;;;;;5065770;28;20033;-81
2021/06/06 07:06:54;;;;;;;2.30;1.20;;;;;;;;;;5058143;28;20053;-81
2021/06/06 07:09:23;;;;;;;6.72;1.30;;;;;;;;;;5073571;28;20040;-81
2021/06/06 07:11:51;;;;;;;5.88;1.65;;;;;;;;;;5069447;28;20465;-81
2021/06/06 07:14:19;;;;;;;4.03;1.50;;;;;;;;;;5054509;28;20041;-81
2021/06/06 07:16:46;;;;;;;3.42;1.10;;;;;;;;;;5071612;28;20040;-81
2021/06/06 07:19:14;;;;;;;2.28;1.20;;;;;;;;;;5068858;28;20078;-81
2021/06/06 07:21:41;;;;;;;2.88;1.15;;;;;;;;;;5105408;28;20501;-81
2021/06/06 07:24:08;;;;;;;1.65;1.40;;;;;;;;;;5068969;28;20025;-81
2021/06/06 07:26:37;;;;;;;6.85;0.90;;;;;;;;;;5070779;28;20461;-81
2021/06/06 07:29:08;;;;;;;2.55;1.48;;;;;;;;;;5097458;28;20599;-81
2021/06/06 07:31:36;;;;;;;2.53;1.10;;;;;;;;;;5101259;28;20051;-81
2021/06/06 07:34:12;;;;;;;1.33;1.00;;;;;;;;;;5104862;28;20052;-81
2021/06/06 07:36:39;;;;;;;4.57;1.17;;;;;;;;;;5071538;28;20045;-81
2021/06/06 07:39:06;;;;;;;3.47;0.90;;;;;;;;;;5073547;28;20044;-81
2021/06/06 07:41:33;;;;;;;2.88;1.00;;;;;;;;;;5060073;28;20041;-81
2021/06/06 07:44:01;;;;;;;1.13;0.93;;;;;;;;;;5065251;28;20051;-81
2021/06/06 07:46:29;;;;;;;1.15;0.93;;;;;;;;;;5067456;28;20037;-81
2021/06/06 07:48:59;;;;;;;1.80;0.75;;;;;;;;;;5069908;28;20058;-81
2021/06/06 07:51:28;;;;;;;5.18;0.95;;;;;;;;;;5087770;28;20050;-81
2021/06/06 07:53:55;;;;;;;1.20;0.82;;;;;;;;;;5073615;28;20061;-81
2021/06/06 07:56:23;;;;;;;3.55;0.70;;;;;;;;;;5070790;28;20047;-81
2021/06/06 07:58:50;;;;;;;1.23;0.90;;;;;;;;;;5062042;28;20043;-81
2021/06/06 08:01:20;;;;;;;1.02;0.80;;;;;;;;;;5064649;28;20147;-81
2021/06/06 08:03:51;;;;;;;1.98;0.90;;;;;;;;;;5074638;28;20059;-81
2021/06/06 08:06:19;;;;;;;0.88;0.88;;;;;;;;;;5061751;28;20131;-81
2021/06/06 08:08:52;;;;;;;0.70;0.70;;;;;;;;;;5069379;28;20123;-80
2021/06/06 08:11:19;;;;;;;1.25;0.88;;;;;;;;;;5089120;28;20055;-81
2021/06/06 08:13:47;;;;;;;2.25;0.70;;;;;;;;;;5074074;28;20090;-81
2021/06/06 08:16:14;;;;;;;2.38;0.70;;;;;;;;;;5094855;28;20044;-81
2021/06/06 08:18:43;;;;;;;3.55;0.80;;;;;;;;;;5054303;28;20059;-81
2021/06/06 08:21:12;;;;;;;0.93;0.77;;;;;;;;;;5072713;28;20041;-81
2021/06/06 08:23:39;;;;;;;1.48;0.63;;;;;;;;;;5078990;28;20028;-81
2021/06/06 08:26:07;;;;;;;2.03;0.70;;;;;;;;;;5072370;28;20040;-81
2021/06/06 08:28:35;;;;;;;1.52;0.70;;;;;;;;;;5064178;28;20505;-81
2021/06/06 08:31:04;;;;;;;0.70;0.70;;;;;;;;;;5069243;28;20842;-81
2021/06/06 08:33:33;;;;;;;5.05;0.73;;;;;;;;;;5067345;28;20069;-81
2021/06/06 08:36:03;;;;;;;3.25;0.60;;;;;;;;;;5061330;28;20075;-81
2021/06/06 08:38:31;;;;;;;0.80;0.70;;;;;;;;;;5072499;28;20045;-81
2021/06/06 08:41:06;;;;;;;1.10;0.50;;;;;;;;;;5066547;28;20070;-81
2021/06/06 08:43:55;;;;;;;0.57;0.50;;;;;;;;;;5064461;28;20033;-81
2021/06/06 08:46:23;;;;;;;1.42;0.60;;;;;;;;;;5070888;28;20049;-81
2021/06/06 08:48:52;;;;;;;0.80;0.60;;;;;;;;;;5065314;28;20044;-81
2021/06/06 08:51:23;;;;;;;0.75;0.73;;;;;;;;;;5053264;28;20110;-81
2021/06/06 08:54:02;;;;;;;0.63;0.50;;;;;;;;;;5077257;28;20039;-81
2021/06/06 08:56:32;;;;;;;1.70;0.50;;;;;;;;;;5076047;28;20071;-81
2021/06/06 08:59:01;;;;;;;2.30;0.60;;;;;;;;;;5067667;28;20143;-81
2021/06/06 09:01:34;;;;;;;1.58;0.50;;;;;;;;;;5066721;28;20165;-81
2021/06/06 09:04:04;;;;;;;0.60;0.60;;;;;;;;;;5066762;28;20037;-81
2021/06/06 09:06:31;;;;;;;1.42;0.60;;;;;;;;;;5080785;28;20041;-81
2021/06/06 09:08:59;;;;;;;1.02;0.60;;;;;;;;;;5060963;28;20036;-81
2021/06/06 09:11:27;;;;;;;0.60;0.60;;;;;;;;;;5088137;28;20493;-81
2021/06/06 09:13:55;;;;;;;2.30;0.70;;;;;;;;;;5065996;28;20045;-81
2021/06/06 09:16:24;;;;;;;1.27;0.60;;;;;;;;;;5099342;28;20049;-81
2021/06/06 09:19:09;;;;;;;2.13;0.60;;;;;;;;;;5098726;28;20056;-81
2021/06/06 09:21:47;;;;;;;2.97;0.50;;;;;;;;;;5049926;28;20045;-81
2021/06/06 09:24:15;;;;;;;3.47;0.50;;;;;;;;;;5059682;28;20040;-81
2021/06/06 09:26:42;;;;;;;0.70;0.50;;;;;;;;;;5061536;28;20036;-81
2021/06/06 09:29:20;;;;;;;2.45;0.50;;;;;;;;;;5089518;28;20094;-81
2021/06/06 09:31:48;;;;;;;0.63;0.50;;;;;;;;;;5061742;28;20043;-81
2021/06/06 09:34:21;;;;;;;0.80;0.50;;;;;;;;;;5046916;28;20107;-81
2021/06/06 09:37:04;;;;;;;0.85;0.50;;;;;;;;;;5057322;28;20049;-81
2021/06/06 09:39:36;;;;;;;2.50;0.80;;;;;;;;;;5072649;28;20041;-81
2021/06/06 09:42:16;;;;;;;0.57;0.40;;;;;;;;;;5063425;28;20048;-81
2021/06/06 09:44:43;;;;;;;2.30;0.52;;;;;;;;;;5067055;28;20037;-81
2021/06/06 09:47:15;;;;;;;0.82;0.82;;;;;;;;;;5063603;28;20045;-81
2021/06/06 09:49:44;;;;;;;0.47;0.40;;;;;;;;;;5058773;28;20496;-81
2021/06/06 09:52:15;;;;;;;2.58;0.70;;;;;;;;;;5067070;28;20053;-81
2021/06/06 09:54:45;;;;;;;0.73;0.50;;;;;;;;;;5067647;28;20372;-81
2021/06/06 09:57:38;;;;;;;2.72;0.50;;;;;;;;;;5077406;28;20056;-81
2021/06/06 10:00:09;;;;;;;1.73;0.50;;;;;;;;;;5077351;28;20049;-81
2021/06/06 10:02:46;;;;;;;3.03;0.70;;;;;;;;;;5086015;28;20052;-81
2021/06/06 10:05:28;;;;;;;0.50;0.50;;;;;;;;;;5058924;28;20041;-81
2021/06/06 10:08:00;;;;;;;1.35;0.90;;;;;;;;;;5087161;28;20037;-81
2021/06/06 10:10:31;;;;;;;2.67;0.60;;;;;;;;;;5072712;28;20123;-81
2021/06/06 10:13:00;;;;;;;3.80;0.60;;;;;;;;;;5074254;28;20044;-81
2021/06/06 10:15:41;;;;;;;0.93;0.50;;;;;;;;;;5104509;27;20052;-81
2021/06/06 10:18:18;;;;;;;6.63;0.50;;;;;;;;;;5094264;28;20104;-82
2021/06/06 10:20:48;;;;;;;2.05;0.70;;;;;;;;;;5066152;28;20099;-81
2021/06/06 10:23:17;;;;;;;1.25;0.60;;;;;;;;;;5072517;28;20052;-81
2021/06/06 10:25:57;;;;;;;1.58;0.50;;;;;;;;;;5073682;28;20126;-81
2021/06/06 10:28:45;;;;;;;0.50;0.50;;;;;;;;;;5068428;28;21484;-82
2021/06/06 10:31:12;;;;;;;1.30;0.50;;;;;;;;;;5062266;28;20484;-82
2021/06/06 10:33:42;;;;;;;1.80;0.50;;;;;;;;;;5076655;28;20068;-82
2021/06/06 10:36:10;;;;;;;0.50;0.50;;;;;;;;;;5073401;28;20493;-82
2021/06/06 10:38:39;;;;;;;0.73;0.50;;;;;;;;;;5063941;28;20086;-82
2021/06/06 10:41:22;;;;;;;2.22;0.40;;;;;;;;;;5086121;28;20472;-82
2021/06/06 10:43:52;;;;;;;4.65;0.80;;;;;;;;;;5070368;28;20082;-82
2021/06/06 10:46:25;;;;;;;1.10;0.60;;;;;;;;;;5071463;28;20465;-82
2021/06/06 10:49:09;;;;;;;1.10;0.50;;;;;;;;;;5087096;28;20045;-82
2021/06/06 10:51:36;;;;;;;1.30;0.50;;;;;;;;;;5069941;28;20040;-82
2021/06/06 10:54:07;;;;;;;2.85;0.50;;;;;;;;;;5068009;28;20045;-82
2021/06/06 10:56:36;;;;;;;1.40;0.55;;;;;;;;;;5090219;28;20444;-82
2021/06/06 10:59:06;;;;;;;1.85;0.60;;;;;;;;;;5072149;28;20059;-82
2021/06/06 11:01:44;;;;;;;2.20;0.50;;;;;;;;;;5056651;28;20048;-82
2021/06/06 11:04:11;;;;;;;1.80;0.50;;;;;;;;;;5068621;28;20033;-82
2021/06/06 11:06:40;;;;;;;1.88;0.60;;;;;;;;;;5062426;28;20033;-82
2021/06/06 11:09:19;;;;;;;1.83;0.50;;;;;;;;;;5059890;28;20598;-82
2021/06/06 11:11:55;;;;;;;1.48;0.60;;;;;;;;;;5085174;28;20067;-82
2021/06/06 11:14:31;;;;;;;4.18;0.60;;;;;;;;;;5057469;28;20045;-82
2021/06/06 11:17:07;;;;;;;4.50;0.55;;;;;;;;;;5062520;28;20661;-82
2021/06/06 11:19:34;;;;;;;1.80;0.50;;;;;;;;;;5066831;28;20078;-82
2021/06/06 11:22:01;;;;;;;0.70;0.52;;;;;;;;;;5089568;28;20056;-81
2021/06/06 11:24:45;;;;;;;2.20;0.50;;;;;;;;;;5066400;28;20037;-81
2021/06/06 11:27:16;;;;;;;1.90;0.50;;;;;;;;;;5075672;28;20037;-81
2021/06/06 11:29:50;;;;;;;2.30;0.77;;;;;;;;;;5073732;28;20489;-81
2021/06/06 11:32:46;;;;;;;3.00;0.52;;;;;;;;;;5070193;28;20437;-81
2021/06/06 11:35:23;;;;;;;4.15;0.50;;;;;;;;;;5013907;28;20050;-82
2021/06/06 11:37:55;;;;;;;3.63;0.80;;;;;;;;;;5063211;28;20102;-82
2021/06/06 11:40:40;;;;;;;1.05;0.93;;;;;;;;;;5071610;28;20036;-82
2021/06/06 11:43:17;;;;;;;1.50;0.60;;;;;;;;;;5072900;28;20055;-81
2021/06/06 11:45:47;;;;;;;1.15;0.60;;;;;;;;;;5068555;28;20048;-81
2021/06/06 11:48:34;;;;;;;4.38;0.93;;;;;;;;;;5070074;28;20036;-81
2021/06/06 11:51:14;;;;;;;1.30;0.47;;;;;;;;;;5061240;28;20039;-81
2021/06/06 11:53:44;;;;;;;5.70;0.65;;;;;;;;;;5071000;28;20036;-81
2021/06/06 11:56:37;;;;;;;2.20;0.50;;;;;;;;;;5065495;28;20041;-81
2021/06/06 11:59:31;;;;;;;1.85;0.50;;;;;;;;;;5054454;28;20056;-81
2021/06/06 12:01:59;;;;;;;1.33;0.50;;;;;;;;;;5091380;28;20579;-81
2021/06/06 12:04:32;;;;;;;1.95;0.40;;;;;;;;;;5070185;28;20035;-81
2021/06/06 12:07:09;;;;;;;1.10;0.47;;;;;;;;;;5067573;28;21425;-82
2021/06/06 12:09:38;;;;;;;0.40;0.40;;;;;;;;;;5105304;28;20037;-82
2021/06/06 12:12:13;;;;;;;1.05;0.50;;;;;;;;;;5052845;28;20052;-82
2021/06/06 12:14:40;;;;;;;2.75;0.50;;;;;;;;;;5038251;28;20049;-82
2021/06/06 12:17:19;;;;;;;1.48;0.40;;;;;;;;;;5041991;28;20528;-81
2021/06/06 12:19:51;;;;;;;0.82;0.40;;;;;;;;;;5048641;28;20045;-81
2021/06/06 12:22:18;;;;;;;0.45;0.40;;;;;;;;;;5051482;28;20123;-81
2021/06/06 12:24:58;;;;;;;1.88;0.60;;;;;;;;;;5031564;28;20707;-81
2021/06/06 12:27:27;;;;;;;0.40;0.40;;;;;;;;;;5038717;28;20063;-81
2021/06/06 12:29:57;;;;;;;1.20;0.40;;;;;;;;;;5033042;28;20119;-82
2021/06/06 12:32:29;;;;;;;4.68;0.40;;;;;;;;;;5045893;28;20064;-81
2021/06/06 12:35:04;;;;;;;2.95;0.50;;;;;;;;;;5043740;28;20053;-81
2021/06/06 12:37:32;;;;;;;3.25;0.50;;;;;;;;;;5051172;28;20200;-82
2021/06/06 12:40:00;;;;;;;0.70;0.70;;;;;;;;;;5048763;28;20040;-82
2021/06/06 12:42:30;;;;;;;2.42;0.63;;;;;;;;;;5036000;28;20049;-82
2021/06/06 12:45:07;;;;;;;3.25;0.50;;;;;;;;;;5046463;28;20536;-81
2021/06/06 12:47:37;;;;;;;2.35;0.70;;;;;;;;;;5032621;28;20053;-81
2021/06/06 12:50:16;;;;;;;4.80;0.60;;;;;;;;;;5048280;28;20583;-81
2021/06/06 12:52:43;;;;;;;0.85;0.50;;;;;;;;;;5032092;28;20048;-81
2021/06/06 12:55:27;;;;;;;2.03;0.50;;;;;;;;;;5047567;28;20059;-81
2021/06/06 12:57:55;;;;;;;1.15;0.50;;;;;;;;;;5069898;28;20477;-82
2021/06/06 13:00:40;;;;;;;2.30;0.50;;;;;;;;;;5051833;28;20623;-82
2021/06/06 13:03:28;;;;;;;2.25;0.43;;;;;;;;;;5051754;28;20050;-82
2021/06/06 13:05:58;;;;;;;1.88;0.32;;;;;;;;;;5063389;28;20497;-82
2021/06/06 13:08:25;;;;;;;1.48;0.40;;;;;;;;;;5071667;28;20040;-82
2021/06/06 13:10:57;;;;;;;0.75;0.40;;;;;;;;;;5072356;28;20563;-82
2021/06/06 13:13:35;;;;;;;0.53;0.50;;;;;;;;;;5068575;28;20089;-82
2021/06/06 13:16:19;;;;;;;1.60;0.50;;;;;;;;;;5057020;28;20515;-82
2021/06/06 13:18:46;;;;;;;;;;;;;;;;;;5072604;28;20044;-82
2021/06/06 13:21:15;;;;;;;1.65;0.40;;;;;;;;;;5083157;28;20262;-82
2021/06/06 13:23:43;;;;;;;2.53;0.50;;;;;;;;;;5070553;28;20045;-82
2021/06/06 13:26:12;;;;;;;1.17;0.85;;;;;;;;;;5065761;28;20451;-82
2021/06/06 13:28:54;;;;;;;1.02;0.45;;;;;;;;;;5063590;28;20520;-82
2021/06/06 13:31:21;;;;;;;2.28;0.82;;;;;;;;;;5090825;28;20044;-82
2021/06/06 13:33:49;;;;;;;0.52;0.40;;;;;;;;;;5067122;28;20541;-82
2021/06/06 13:36:16;;;;;;;1.92;1.25;;;;;;;;;;5092550;28;20727;-82
2021/06/06 13:38:43;;;;;;;0.40;0.40;;;;;;;;;;5075657;28;20041;-82
2021/06/06 13:41:13;;;;;;;2.33;0.50;;;;;;;;;;5071305;28;20483;-82
2021/06/06 13:43:42;;;;;;;1.40;0.40;;;;;;;;;;5074907;28;20036;-82
2021/06/06 13:46:15;;;;;;;0.60;0.50;;;;;;;;;;5089577;28;20043;-82
2021/06/06 13:48:43;;;;;;;2.03;0.40;;;;;;;;;;5073079;28;20456;-82
2021/06/06 13:51:13;;;;;;;5.38;0.47;;;;;;;;;;5055231;28;20044;-82
2021/06/06 13:53:42;;;;;;;4.35;0.60;;;;;;;;;;5034780;28;20041;-82
2021/06/06 13:56:10;;;;;;;1.75;0.40;;;;;;;;;;5057361;28;20041;-82
2021/06/06 13:58:38;;;;;;;1.55;0.40;;;;;;;;;;5039913;28;20045;-82
2021/06/06 14:01:10;;;;;;;2.13;0.40;;;;;;;;;;5042661;28;20053;-82
2021/06/06 14:03:39;;;;;;;2.03;1.15;;;;;;;;;;5039889;28;20441;-82
2021/06/06 14:06:09;;;;;;;1.33;0.40;;;;;;;;;;5036738;28;20479;-82
2021/06/06 14:08:36;;;;;;;1.27;0.50;;;;;;;;;;5040843;28;20044;-82
2021/06/06 14:11:26;;;;;;;1.70;0.40;;;;;;;;;;5037419;28;20045;-82
2021/06/06 14:13:58;;;;;;;0.80;0.80;;;;;;;;;;5054382;28;20449;-82
2021/06/06 14:16:26;;;;;;;0.70;0.50;;;;;;;;;;5075142;28;20543;-82
2021/06/06 14:18:56;;;;;;;1.85;0.40;;;;;;;;;;5074773;28;20452;-82
2021/06/06 14:21:26;;;;;;;2.47;0.47;;;;;;;;;;5061765;28;20090;-81
2021/06/06 14:23:56;;;;;;;1.33;0.50;;;;;;;;;;5066574;28;20584;-82
2021/06/06 14:26:29;;;;;;;0.40;0.40;;;;;;;;;;5068446;28;20118;-82
2021/06/06 14:28:57;;;;;;;1.88;0.63;;;;;;;;;;5070126;28;20033;-82
2021/06/06 14:31:25;;;;;;;1.10;0.88;;;;;;;;;;5079974;28;20075;-82
2021/06/06 14:33:55;;;;;;;1.75;0.40;;;;;;;;;;5072596;28;20044;-82
2021/06/06 14:36:25;;;;;;;0.45;0.45;;;;;;;;;;5047975;28;20501;-82
2021/06/06 14:38:52;;;;;;;4.85;0.47;;;;;;;;;;5042269;28;20516;-81
2021/06/06 14:41:20;;;;;;;0.50;0.50;;;;;;;;;;5040875;28;20060;-79
2021/06/06 14:43:49;;;;;;;0.60;0.40;;;;;;;;;;5046079;28;20037;-79
2021/06/06 14:46:16;;;;;;;1.10;0.50;;;;;;;;;;5058227;28;20037;-79
2021/06/06 14:48:44;;;;;;;1.20;0.50;;;;;;;;;;5041071;28;20049;-79
2021/06/06 14:51:12;;;;;;;0.47;0.47;;;;;;;;;;5048158;28;20045;-79
2021/06/06 14:53:40;;;;;;;0.45;0.45;;;;;;;;;;5039103;28;20052;-79
2021/06/06 14:56:08;;;;;;;1.10;0.50;;;;;;;;;;5006139;28;20052;-79
2021/06/06 14:58:36;;;;;;;3.15;0.45;;;;;;;;;;5036215;28;20044;-79
2021/06/06 15:01:06;;;;;;;0.40;0.40;;;;;;;;;;5027119;28;20713;-79
2021/06/06 15:03:33;;;;;;;2.90;0.40;;;;;;;;;;5044649;28;20534;-79